PWSweather.com
Personal Weather Stations
Station Observations
EDELWEISS
Edelweiss Mazama, Winthrop, WA 98862

Edelweiss MazamaWinthrop, WA 98862

Lat: 48.55444, Lon: -120.33194

Elevation: 2376

Station Type: Davis Vantage Vue

http://www.methow.us/weather/etown.html

High Low Average
Temperature 87.1°F30.6°C 61.2°F16.2°C 74.5°F23.6°C
Dew Point 46.9°F8.3°C 31.8°F-0.1°C 40.6°F4.8°C
Winds 2.0 mph 3.2 kmh Calm Calm 1.0 mph E1.6 kmh E
Wind Gusts 7.0 mph11.3 kmh 1.0 mph1.6 kmh 4.0 mph6.4 kmh
Humidity 40% 18% 30%
Pressure 29.84 in1010.5 mb 29.74 in1007.1 mb -
Precipitation 0.00 in0.0 mm - -
Hour Temp Dew Point Humidity Winds Wind Gusts Pressure Precip Precip Rate Daily Precip Total
11:05 AM 72.0°F22.2°C 45.0°F7.2°C 38% 1.0 mph S1.6 kmh S 2.0 mph3.2 kmh 29.84 in1010.5 mb 0.00 in0.0 mm 0.00 in0.0 mm 0.00 in0.0 mm
11:10 AM 72.3°F22.4°C 45.9°F7.7°C 39% 1.0 mph S1.6 kmh S 2.0 mph3.2 kmh 29.83 in1010.2 mb 0.00 in0.0 mm 0.00 in0.0 mm 0.00 in0.0 mm
11:15 AM 72.7°F22.6°C 45.6°F7.6°C 38% 1.0 mph SSE1.6 kmh SSE 2.0 mph3.2 kmh 29.83 in1010.2 mb 0.00 in0.0 mm 0.00 in0.0 mm 0.00 in0.0 mm
11:20 AM 72.6°F22.6°C 44.8°F7.1°C 37% 1.0 mph ESE1.6 kmh ESE 2.0 mph3.2 kmh 29.82 in1009.8 mb 0.00 in0.0 mm 0.00 in0.0 mm 0.00 in0.0 mm
11:25 AM 72.8°F22.7°C 45.7°F7.6°C 38% 1.0 mph E1.6 kmh E 2.0 mph3.2 kmh 29.82 in1009.8 mb 0.00 in0.0 mm 0.00 in0.0 mm 0.00 in0.0 mm
11:30 AM 73.0°F22.8°C 45.2°F7.3°C 37% 1.0 mph NNW1.6 kmh NNW 2.0 mph3.2 kmh 29.82 in1009.8 mb 0.00 in0.0 mm 0.00 in0.0 mm 0.00 in0.0 mm
11:35 AM 73.7°F23.2°C 45.8°F7.7°C 37% 1.0 mph WSW1.6 kmh WSW 2.0 mph3.2 kmh 29.82 in1009.8 mb 0.00 in0.0 mm 0.00 in0.0 mm 0.00 in0.0 mm
11:40 AM 74.4°F23.6°C 45.0°F7.2°C 35% 1.0 mph SE1.6 kmh SE 2.0 mph3.2 kmh 29.81 in1009.5 mb 0.00 in0.0 mm 0.00 in0.0 mm 0.00 in0.0 mm
11:45 AM 74.9°F23.8°C 46.1°F7.8°C 36% Calm Calm 1.0 mph1.6 kmh 29.81 in1009.5 mb 0.00 in0.0 mm 0.00 in0.0 mm 0.00 in0.0 mm
11:50 AM 75.4°F24.1°C 46.6°F8.1°C 36% Calm Calm 1.0 mph1.6 kmh 29.80 in1009.1 mb 0.00 in0.0 mm 0.00 in0.0 mm 0.00 in0.0 mm
11:55 AM 75.6°F24.2°C 46.8°F8.2°C 36% Calm Calm 4.0 mph6.4 kmh 29.80 in1009.1 mb 0.00 in0.0 mm 0.00 in0.0 mm 0.00 in0.0 mm
12:00 PM 75.7°F24.3°C 45.3°F7.4°C 34% 1.0 mph SW1.6 kmh SW 4.0 mph6.4 kmh 29.80 in1009.1 mb 0.00 in0.0 mm 0.00 in0.0 mm 0.00 in0.0 mm
12:05 PM 76.5°F24.7°C 45.2°F7.3°C 33% 1.0 mph SSW1.6 kmh SSW 3.0 mph4.8 kmh 29.80 in1009.1 mb 0.00 in0.0 mm 0.00 in0.0 mm 0.00 in0.0 mm
12:10 PM 77.2°F25.1°C 45.9°F7.7°C 33% 1.0 mph S1.6 kmh S 5.0 mph8.0 kmh 29.80 in1009.1 mb 0.00 in0.0 mm 0.00 in0.0 mm 0.00 in0.0 mm
12:15 PM 77.1°F25.1°C 45.0°F7.2°C 32% 1.0 mph SSW1.6 kmh SSW 5.0 mph8.0 kmh 29.79 in1008.8 mb 0.00 in0.0 mm 0.00 in0.0 mm 0.00 in0.0 mm
12:20 PM 78.1°F25.6°C 45.8°F7.7°C 32% 2.0 mph S3.2 kmh S 4.0 mph6.4 kmh 29.79 in1008.8 mb 0.00 in0.0 mm 0.00 in0.0 mm 0.00 in0.0 mm
12:25 PM 79.3°F26.3°C 46.9°F8.3°C 32% 2.0 mph S3.2 kmh S 5.0 mph8.0 kmh 29.79 in1008.8 mb 0.00 in0.0 mm 0.00 in0.0 mm 0.00 in0.0 mm
12:30 PM 79.8°F26.6°C 46.5°F8.1°C 31% 2.0 mph SSW3.2 kmh SSW 5.0 mph8.0 kmh 29.78 in1008.5 mb 0.00 in0.0 mm 0.00 in0.0 mm 0.00 in0.0 mm
12:35 PM 80.8°F27.1°C 45.6°F7.6°C 29% 2.0 mph S3.2 kmh S 4.0 mph6.4 kmh 29.78 in1008.5 mb 0.00 in0.0 mm 0.00 in0.0 mm 0.00 in0.0 mm
12:40 PM 81.6°F27.6°C 45.3°F7.4°C 28% 2.0 mph SW3.2 kmh SW 4.0 mph6.4 kmh 29.78 in1008.5 mb 0.00 in0.0 mm 0.00 in0.0 mm 0.00 in0.0 mm
12:45 PM 82.3°F27.9°C 45.0°F7.2°C 27% 2.0 mph SW3.2 kmh SW 4.0 mph6.4 kmh 29.78 in1008.5 mb 0.00 in0.0 mm 0.00 in0.0 mm 0.00 in0.0 mm
12:50 PM 82.6°F28.1°C 43.2°F6.2°C 25% 2.0 mph SW3.2 kmh SW 4.0 mph6.4 kmh 29.77 in1008.1 mb 0.00 in0.0 mm 0.00 in0.0 mm 0.00 in0.0 mm
12:55 PM 83.1°F28.4°C 44.7°F7.1°C 26% 2.0 mph SW3.2 kmh SW 4.0 mph6.4 kmh 29.77 in1008.1 mb 0.00 in0.0 mm 0.00 in0.0 mm 0.00 in0.0 mm
01:00 PM 83.3°F28.5°C 45.8°F7.7°C 27% 1.0 mph SSW1.6 kmh SSW 4.0 mph6.4 kmh 29.77 in1008.1 mb 0.00 in0.0 mm 0.00 in0.0 mm 0.00 in0.0 mm
01:05 PM 83.8°F28.8°C 45.3°F7.4°C 26% 1.0 mph SW1.6 kmh SW 3.0 mph4.8 kmh 29.77 in1008.1 mb 0.00 in0.0 mm 0.00 in0.0 mm 0.00 in0.0 mm
01:10 PM 84.0°F28.9°C 45.4°F7.4°C 26% 1.0 mph SW1.6 kmh SW 6.0 mph9.7 kmh 29.76 in1007.8 mb 0.00 in0.0 mm 0.00 in0.0 mm 0.00 in0.0 mm
01:15 PM 84.5°F29.2°C 43.7°F6.5°C 24% 2.0 mph SW3.2 kmh SW 6.0 mph9.7 kmh 29.76 in1007.8 mb 0.00 in0.0 mm 0.00 in0.0 mm 0.00 in0.0 mm
01:20 PM 84.8°F29.3°C 42.9°F6.1°C 23% 2.0 mph SSW3.2 kmh SSW 6.0 mph9.7 kmh 29.76 in1007.8 mb 0.00 in0.0 mm 0.00 in0.0 mm 0.00 in0.0 mm
01:25 PM 85.4°F29.7°C 44.5°F6.9°C 24% 2.0 mph S3.2 kmh S 6.0 mph9.7 kmh 29.76 in1007.8 mb 0.00 in0.0 mm 0.00 in0.0 mm 0.00 in0.0 mm
01:30 PM 86.4°F30.2°C 43.1°F6.2°C 22% 2.0 mph S3.2 kmh S 4.0 mph6.4 kmh 29.76 in1007.8 mb 0.00 in0.0 mm 0.00 in0.0 mm 0.00 in0.0 mm
01:35 PM 87.1°F30.6°C 39.8°F4.3°C 19% 2.0 mph SE3.2 kmh SE 7.0 mph11.3 kmh 29.75 in1007.5 mb 0.00 in0.0 mm 0.00 in0.0 mm 0.00 in0.0 mm
01:40 PM 86.9°F30.5°C 38.3°F3.5°C 18% 2.0 mph SE3.2 kmh SE 7.0 mph11.3 kmh 29.75 in1007.5 mb 0.00 in0.0 mm 0.00 in0.0 mm 0.00 in0.0 mm
01:45 PM 86.7°F30.4°C 38.1°F3.4°C 18% 2.0 mph SE3.2 kmh SE 6.0 mph9.7 kmh 29.75 in1007.5 mb 0.00 in0.0 mm 0.00 in0.0 mm 0.00 in0.0 mm
01:50 PM 86.2°F30.1°C 37.7°F3.2°C 18% 2.0 mph E3.2 kmh E 6.0 mph9.7 kmh 29.75 in1007.5 mb 0.00 in0.0 mm 0.00 in0.0 mm 0.00 in0.0 mm
01:55 PM 85.7°F29.8°C 37.3°F2.9°C 18% 2.0 mph E3.2 kmh E 6.0 mph9.7 kmh 29.75 in1007.5 mb 0.00 in0.0 mm 0.00 in0.0 mm 0.00 in0.0 mm
02:00 PM 85.4°F29.7°C 38.4°F3.6°C 19% 2.0 mph E3.2 kmh E 6.0 mph9.7 kmh 29.75 in1007.5 mb 0.00 in0.0 mm 0.00 in0.0 mm 0.00 in0.0 mm
02:05 PM 85.1°F29.5°C 38.2°F3.4°C 19% 2.0 mph E3.2 kmh E 6.0 mph9.7 kmh 29.75 in1007.5 mb 0.00 in0.0 mm 0.00 in0.0 mm 0.00 in0.0 mm
02:10 PM 84.8°F29.3°C 39.3°F4.1°C 20% 2.0 mph ESE3.2 kmh ESE 6.0 mph9.7 kmh 29.75 in1007.5 mb 0.00 in0.0 mm 0.00 in0.0 mm 0.00 in0.0 mm
02:15 PM 84.6°F29.2°C 39.1°F3.9°C 20% 2.0 mph N3.2 kmh N 5.0 mph8.0 kmh 29.75 in1007.5 mb 0.00 in0.0 mm 0.00 in0.0 mm 0.00 in0.0 mm
02:20 PM 84.2°F29.0°C 38.8°F3.8°C 20% 2.0 mph N3.2 kmh N 6.0 mph9.7 kmh 29.75 in1007.5 mb 0.00 in0.0 mm 0.00 in0.0 mm 0.00 in0.0 mm
02:25 PM 84.0°F28.9°C 38.6°F3.7°C 20% 2.0 mph NNE3.2 kmh NNE 6.0 mph9.7 kmh 29.75 in1007.5 mb 0.00 in0.0 mm 0.00 in0.0 mm 0.00 in0.0 mm
02:30 PM 83.9°F28.8°C 38.5°F3.6°C 20% 2.0 mph NNE3.2 kmh NNE 6.0 mph9.7 kmh 29.75 in1007.5 mb 0.00 in0.0 mm 0.00 in0.0 mm 0.00 in0.0 mm
02:35 PM 83.9°F28.8°C 38.5°F3.6°C 20% 2.0 mph N3.2 kmh N 6.0 mph9.7 kmh 29.74 in1007.1 mb 0.00 in0.0 mm 0.00 in0.0 mm 0.00 in0.0 mm
02:40 PM 83.9°F28.8°C 38.5°F3.6°C 20% 2.0 mph NNE3.2 kmh NNE 5.0 mph8.0 kmh 29.75 in1007.5 mb 0.00 in0.0 mm 0.00 in0.0 mm 0.00 in0.0 mm
02:45 PM 84.4°F29.1°C 38.9°F3.8°C 20% 2.0 mph E3.2 kmh E 4.0 mph6.4 kmh 29.75 in1007.5 mb 0.00 in0.0 mm 0.00 in0.0 mm 0.00 in0.0 mm
02:50 PM 85.0°F29.4°C 39.4°F4.1°C 20% 2.0 mph SW3.2 kmh SW 5.0 mph8.0 kmh 29.74 in1007.1 mb 0.00 in0.0 mm 0.00 in0.0 mm 0.00 in0.0 mm
02:55 PM 85.6°F29.8°C 38.6°F3.7°C 19% 2.0 mph WSW3.2 kmh WSW 5.0 mph8.0 kmh 29.75 in1007.5 mb 0.00 in0.0 mm 0.00 in0.0 mm 0.00 in0.0 mm
03:00 PM 85.8°F29.9°C 38.8°F3.8°C 19% 2.0 mph SW3.2 kmh SW 5.0 mph8.0 kmh 29.75 in1007.5 mb 0.00 in0.0 mm 0.00 in0.0 mm 0.00 in0.0 mm
03:05 PM 85.9°F29.9°C 38.8°F3.8°C 19% 1.0 mph S1.6 kmh S 5.0 mph8.0 kmh 29.75 in1007.5 mb 0.00 in0.0 mm 0.00 in0.0 mm 0.00 in0.0 mm
03:10 PM 85.6°F29.8°C 38.6°F3.7°C 19% 2.0 mph SSE3.2 kmh SSE 6.0 mph9.7 kmh 29.75 in1007.5 mb 0.00 in0.0 mm 0.00 in0.0 mm 0.00 in0.0 mm
03:15 PM 85.6°F29.8°C 38.6°F3.7°C 19% 2.0 mph SSE3.2 kmh SSE 6.0 mph9.7 kmh 29.75 in1007.5 mb 0.00 in0.0 mm 0.00 in0.0 mm 0.00 in0.0 mm
03:20 PM 84.9°F29.4°C 38.0°F3.3°C 19% 2.0 mph SE3.2 kmh SE 5.0 mph8.0 kmh 29.74 in1007.1 mb 0.00 in0.0 mm 0.00 in0.0 mm 0.00 in0.0 mm
03:25 PM 85.2°F29.6°C 39.6°F4.2°C 20% 2.0 mph SE3.2 kmh SE 5.0 mph8.0 kmh 29.74 in1007.1 mb 0.00 in0.0 mm 0.00 in0.0 mm 0.00 in0.0 mm
03:30 PM 85.1°F29.5°C 38.2°F3.4°C 19% 2.0 mph S3.2 kmh S 5.0 mph8.0 kmh 29.75 in1007.5 mb 0.00 in0.0 mm 0.00 in0.0 mm 0.00 in0.0 mm
03:35 PM 85.0°F29.4°C 39.4°F4.1°C 20% 2.0 mph SSE3.2 kmh SSE 5.0 mph8.0 kmh 29.75 in1007.5 mb 0.00 in0.0 mm 0.00 in0.0 mm 0.00 in0.0 mm
03:40 PM 84.9°F29.4°C 39.3°F4.1°C 20% 2.0 mph SSE3.2 kmh SSE 5.0 mph8.0 kmh 29.74 in1007.1 mb 0.00 in0.0 mm 0.00 in0.0 mm 0.00 in0.0 mm
03:45 PM 84.3°F29.1°C 38.9°F3.8°C 20% 2.0 mph SE3.2 kmh SE 4.0 mph6.4 kmh 29.74 in1007.1 mb 0.00 in0.0 mm 0.00 in0.0 mm 0.00 in0.0 mm
03:50 PM 83.3°F28.5°C 39.3°F4.1°C 21% 2.0 mph NNE3.2 kmh NNE 4.0 mph6.4 kmh 29.74 in1007.1 mb 0.00 in0.0 mm 0.00 in0.0 mm 0.00 in0.0 mm
03:55 PM 82.8°F28.2°C 38.9°F3.8°C 21% 2.0 mph N3.2 kmh N 4.0 mph6.4 kmh 29.75 in1007.5 mb 0.00 in0.0 mm 0.00 in0.0 mm 0.00 in0.0 mm
04:00 PM 82.6°F28.1°C 38.7°F3.7°C 21% 1.0 mph E1.6 kmh E 4.0 mph6.4 kmh 29.75 in1007.5 mb 0.00 in0.0 mm 0.00 in0.0 mm 0.00 in0.0 mm
04:05 PM 82.8°F28.2°C 40.1°F4.5°C 22% 1.0 mph SSE1.6 kmh SSE 5.0 mph8.0 kmh 29.75 in1007.5 mb 0.00 in0.0 mm 0.00 in0.0 mm 0.00 in0.0 mm
04:10 PM 82.6°F28.1°C 39.9°F4.4°C 22% 2.0 mph S3.2 kmh S 5.0 mph8.0 kmh 29.75 in1007.5 mb 0.00 in0.0 mm 0.00 in0.0 mm 0.00 in0.0 mm
04:15 PM 82.2°F27.9°C 40.7°F4.8°C 23% 2.0 mph SE3.2 kmh SE 4.0 mph6.4 kmh 29.75 in1007.5 mb 0.00 in0.0 mm 0.00 in0.0 mm 0.00 in0.0 mm
04:20 PM 81.8°F27.7°C 40.4°F4.7°C 23% 2.0 mph ESE3.2 kmh ESE 4.0 mph6.4 kmh 29.75 in1007.5 mb 0.00 in0.0 mm 0.00 in0.0 mm 0.00 in0.0 mm
04:25 PM 81.6°F27.6°C 40.2°F4.6°C 23% 1.0 mph SE1.6 kmh SE 5.0 mph8.0 kmh 29.75 in1007.5 mb 0.00 in0.0 mm 0.00 in0.0 mm 0.00 in0.0 mm
04:30 PM 81.2°F27.3°C 41.0°F5.0°C 24% 1.0 mph SE1.6 kmh SE 5.0 mph8.0 kmh 29.75 in1007.5 mb 0.00 in0.0 mm 0.00 in0.0 mm 0.00 in0.0 mm
04:35 PM 80.5°F26.9°C 40.4°F4.7°C 24% 1.0 mph ESE1.6 kmh ESE 4.0 mph6.4 kmh 29.75 in1007.5 mb 0.00 in0.0 mm 0.00 in0.0 mm 0.00 in0.0 mm
04:40 PM 79.7°F26.5°C 40.8°F4.9°C 25% 2.0 mph E3.2 kmh E 4.0 mph6.4 kmh 29.75 in1007.5 mb 0.00 in0.0 mm 0.00 in0.0 mm 0.00 in0.0 mm
04:45 PM 79.0°F26.1°C 40.2°F4.6°C 25% 2.0 mph E3.2 kmh E 7.0 mph11.3 kmh 29.75 in1007.5 mb 0.00 in0.0 mm 0.00 in0.0 mm 0.00 in0.0 mm
04:50 PM 78.7°F25.9°C 40.9°F4.9°C 26% 2.0 mph E3.2 kmh E 7.0 mph11.3 kmh 29.75 in1007.5 mb 0.00 in0.0 mm 0.00 in0.0 mm 0.00 in0.0 mm
04:55 PM 78.6°F25.9°C 40.8°F4.9°C 26% 2.0 mph E3.2 kmh E 5.0 mph8.0 kmh 29.76 in1007.8 mb 0.00 in0.0 mm 0.00 in0.0 mm 0.00 in0.0 mm
05:00 PM 78.3°F25.7°C 41.6°F5.3°C 27% 1.0 mph E1.6 kmh E 5.0 mph8.0 kmh 29.75 in1007.5 mb 0.00 in0.0 mm 0.00 in0.0 mm 0.00 in0.0 mm
05:05 PM 78.0°F25.6°C 41.3°F5.2°C 27% 1.0 mph E1.6 kmh E 5.0 mph8.0 kmh 29.76 in1007.8 mb 0.00 in0.0 mm 0.00 in0.0 mm 0.00 in0.0 mm
05:10 PM 77.7°F25.4°C 42.0°F5.6°C 28% 2.0 mph ESE3.2 kmh ESE 5.0 mph8.0 kmh 29.76 in1007.8 mb 0.00 in0.0 mm 0.00 in0.0 mm 0.00 in0.0 mm
05:15 PM 77.3°F25.2°C 41.6°F5.3°C 28% 2.0 mph ESE3.2 kmh ESE 5.0 mph8.0 kmh 29.76 in1007.8 mb 0.00 in0.0 mm 0.00 in0.0 mm 0.00 in0.0 mm
05:20 PM 76.9°F24.9°C 42.2°F5.7°C 29% 2.0 mph E3.2 kmh E 4.0 mph6.4 kmh 29.76 in1007.8 mb 0.00 in0.0 mm 0.00 in0.0 mm 0.00 in0.0 mm
05:25 PM 76.5°F24.7°C 41.9°F5.5°C 29% 1.0 mph E1.6 kmh E 4.0 mph6.4 kmh 29.76 in1007.8 mb 0.00 in0.0 mm 0.00 in0.0 mm 0.00 in0.0 mm
05:30 PM 75.9°F24.4°C 42.2°F5.7°C 30% 1.0 mph E1.6 kmh E 3.0 mph4.8 kmh 29.76 in1007.8 mb 0.00 in0.0 mm 0.00 in0.0 mm 0.00 in0.0 mm
05:35 PM 75.4°F24.1°C 41.8°F5.4°C 30% 1.0 mph E1.6 kmh E 4.0 mph6.4 kmh 29.76 in1007.8 mb 0.00 in0.0 mm 0.00 in0.0 mm 0.00 in0.0 mm
05:40 PM 74.9°F23.8°C 42.2°F5.7°C 31% 2.0 mph E3.2 kmh E 5.0 mph8.0 kmh 29.76 in1007.8 mb 0.00 in0.0 mm 0.00 in0.0 mm 0.00 in0.0 mm
05:45 PM 74.5°F23.6°C 41.9°F5.5°C 31% 2.0 mph E3.2 kmh E 5.0 mph8.0 kmh 29.76 in1007.8 mb 0.00 in0.0 mm 0.00 in0.0 mm 0.00 in0.0 mm
05:50 PM 74.2°F23.4°C 42.4°F5.8°C 32% 1.0 mph E1.6 kmh E 3.0 mph4.8 kmh 29.76 in1007.8 mb 0.00 in0.0 mm 0.00 in0.0 mm 0.00 in0.0 mm
05:55 PM 74.0°F23.3°C 42.3°F5.7°C 32% 1.0 mph E1.6 kmh E 3.0 mph4.8 kmh 29.77 in1008.1 mb 0.00 in0.0 mm 0.00 in0.0 mm 0.00 in0.0 mm
06:00 PM 73.6°F23.1°C 41.9°F5.5°C 32% 1.0 mph E1.6 kmh E 3.0 mph4.8 kmh 29.77 in1008.1 mb 0.00 in0.0 mm 0.00 in0.0 mm 0.00 in0.0 mm
06:05 PM 73.3°F22.9°C 41.6°F5.3°C 32% 1.0 mph E1.6 kmh E 3.0 mph4.8 kmh 29.77 in1008.1 mb 0.00 in0.0 mm 0.00 in0.0 mm 0.00 in0.0 mm
06:10 PM 73.1°F22.8°C 41.5°F5.3°C 32% 1.0 mph ENE1.6 kmh ENE 4.0 mph6.4 kmh 29.77 in1008.1 mb 0.00 in0.0 mm 0.00 in0.0 mm 0.00 in0.0 mm
06:15 PM 72.8°F22.7°C 41.2°F5.1°C 32% 1.0 mph E1.6 kmh E 4.0 mph6.4 kmh 29.77 in1008.1 mb 0.00 in0.0 mm 0.00 in0.0 mm 0.00 in0.0 mm
06:20 PM 72.5°F22.5°C 41.7°F5.4°C 33% 1.0 mph ENE1.6 kmh ENE 3.0 mph4.8 kmh 29.77 in1008.1 mb 0.00 in0.0 mm 0.00 in0.0 mm 0.00 in0.0 mm
06:25 PM 72.5°F22.5°C 41.7°F5.4°C 33% 1.0 mph ENE1.6 kmh ENE 3.0 mph4.8 kmh 29.77 in1008.1 mb 0.00 in0.0 mm 0.00 in0.0 mm 0.00 in0.0 mm
06:30 PM 72.2°F22.3°C 41.5°F5.3°C 33% 1.0 mph E1.6 kmh E 3.0 mph4.8 kmh 29.77 in1008.1 mb 0.00 in0.0 mm 0.00 in0.0 mm 0.00 in0.0 mm
06:35 PM 72.1°F22.3°C 41.4°F5.2°C 33% 1.0 mph E1.6 kmh E 7.0 mph11.3 kmh 29.77 in1008.1 mb 0.00 in0.0 mm 0.00 in0.0 mm 0.00 in0.0 mm
06:40 PM 71.9°F22.2°C 41.2°F5.1°C 33% 2.0 mph ENE3.2 kmh ENE 7.0 mph11.3 kmh 29.78 in1008.5 mb 0.00 in0.0 mm 0.00 in0.0 mm 0.00 in0.0 mm
06:45 PM 71.7°F22.1°C 41.8°F5.4°C 34% 2.0 mph ENE3.2 kmh ENE 3.0 mph4.8 kmh 29.78 in1008.5 mb 0.00 in0.0 mm 0.00 in0.0 mm 0.00 in0.0 mm
06:50 PM 71.6°F22.0°C 41.7°F5.4°C 34% 1.0 mph ENE1.6 kmh ENE 7.0 mph11.3 kmh 29.78 in1008.5 mb 0.00 in0.0 mm 0.00 in0.0 mm 0.00 in0.0 mm
06:55 PM 71.4°F21.9°C 41.6°F5.3°C 34% 2.0 mph E3.2 kmh E 7.0 mph11.3 kmh 29.78 in1008.5 mb 0.00 in0.0 mm 0.00 in0.0 mm 0.00 in0.0 mm
07:00 PM 71.1°F21.7°C 41.3°F5.2°C 34% 2.0 mph ENE3.2 kmh ENE 5.0 mph8.0 kmh 29.78 in1008.5 mb 0.00 in0.0 mm 0.00 in0.0 mm 0.00 in0.0 mm
07:05 PM 71.0°F21.7°C 42.0°F5.6°C 35% 2.0 mph ENE3.2 kmh ENE 5.0 mph8.0 kmh 29.79 in1008.8 mb 0.00 in0.0 mm 0.00 in0.0 mm 0.00 in0.0 mm
07:10 PM 70.8°F21.6°C 41.8°F5.4°C 35% 2.0 mph NE3.2 kmh NE 3.0 mph4.8 kmh 29.79 in1008.8 mb 0.00 in0.0 mm 0.00 in0.0 mm 0.00 in0.0 mm
07:15 PM 70.5°F21.4°C 41.5°F5.3°C 35% 1.0 mph NE1.6 kmh NE 3.0 mph4.8 kmh 29.79 in1008.8 mb 0.00 in0.0 mm 0.00 in0.0 mm 0.00 in0.0 mm
07:20 PM 70.5°F21.4°C 41.5°F5.3°C 35% 2.0 mph NNE3.2 kmh NNE 3.0 mph4.8 kmh 29.79 in1008.8 mb 0.00 in0.0 mm 0.00 in0.0 mm 0.00 in0.0 mm
07:25 PM 70.4°F21.3°C 41.4°F5.2°C 35% 2.0 mph N3.2 kmh N 3.0 mph4.8 kmh 29.79 in1008.8 mb 0.00 in0.0 mm 0.00 in0.0 mm 0.00 in0.0 mm
07:30 PM 70.4°F21.3°C 41.4°F5.2°C 35% 1.0 mph NNE1.6 kmh NNE 3.0 mph4.8 kmh 29.79 in1008.8 mb 0.00 in0.0 mm 0.00 in0.0 mm 0.00 in0.0 mm
07:35 PM 70.2°F21.2°C 41.3°F5.2°C 35% 1.0 mph NE1.6 kmh NE 3.0 mph4.8 kmh 29.79 in1008.8 mb 0.00 in0.0 mm 0.00 in0.0 mm 0.00 in0.0 mm
07:40 PM 70.0°F21.1°C 41.8°F5.4°C 36% 1.0 mph ESE1.6 kmh ESE 2.0 mph3.2 kmh 29.79 in1008.8 mb 0.00 in0.0 mm 0.00 in0.0 mm 0.00 in0.0 mm
07:45 PM 69.9°F21.1°C 41.7°F5.4°C 36% 1.0 mph ESE1.6 kmh ESE 3.0 mph4.8 kmh 29.79 in1008.8 mb 0.00 in0.0 mm 0.00 in0.0 mm 0.00 in0.0 mm
07:50 PM 69.7°F20.9°C 41.5°F5.3°C 36% 1.0 mph E1.6 kmh E 3.0 mph4.8 kmh 29.79 in1008.8 mb 0.00 in0.0 mm 0.00 in0.0 mm 0.00 in0.0 mm
07:55 PM 69.5°F20.8°C 41.4°F5.2°C 36% 1.0 mph E1.6 kmh E 2.0 mph3.2 kmh 29.79 in1008.8 mb 0.00 in0.0 mm 0.00 in0.0 mm 0.00 in0.0 mm
08:00 PM 69.1°F20.6°C 41.7°F5.4°C 37% 1.0 mph E1.6 kmh E 2.0 mph3.2 kmh 29.79 in1008.8 mb 0.00 in0.0 mm 0.00 in0.0 mm 0.00 in0.0 mm
08:05 PM 68.8°F20.4°C 41.5°F5.3°C 37% 1.0 mph NE1.6 kmh NE 2.0 mph3.2 kmh 29.79 in1008.8 mb 0.00 in0.0 mm 0.00 in0.0 mm 0.00 in0.0 mm
08:10 PM 68.8°F20.4°C 41.5°F5.3°C 37% Calm Calm 5.0 mph8.0 kmh 29.79 in1008.8 mb 0.00 in0.0 mm 0.00 in0.0 mm 0.00 in0.0 mm
08:15 PM 68.8°F20.4°C 41.5°F5.3°C 37% 1.0 mph N1.6 kmh N 5.0 mph8.0 kmh 29.79 in1008.8 mb 0.00 in0.0 mm 0.00 in0.0 mm 0.00 in0.0 mm
08:20 PM 68.6°F20.3°C 41.3°F5.2°C 37% 1.0 mph NNW1.6 kmh NNW 3.0 mph4.8 kmh 29.79 in1008.8 mb 0.00 in0.0 mm 0.00 in0.0 mm 0.00 in0.0 mm
08:25 PM 68.3°F20.2°C 41.0°F5.0°C 37% 1.0 mph N1.6 kmh N 1.0 mph1.6 kmh 29.79 in1008.8 mb 0.00 in0.0 mm 0.00 in0.0 mm 0.00 in0.0 mm
08:30 PM 68.0°F20.0°C 40.7°F4.8°C 37% Calm Calm 1.0 mph1.6 kmh 29.79 in1008.8 mb 0.00 in0.0 mm 0.00 in0.0 mm 0.00 in0.0 mm
08:35 PM 67.8°F19.9°C 40.6°F4.8°C 37% Calm Calm 1.0 mph1.6 kmh 29.80 in1009.1 mb 0.00 in0.0 mm 0.00 in0.0 mm 0.00 in0.0 mm
08:40 PM 67.7°F19.8°C 40.5°F4.7°C 37% Calm Calm 2.0 mph3.2 kmh 29.79 in1008.8 mb 0.00 in0.0 mm 0.00 in0.0 mm 0.00 in0.0 mm
08:45 PM 67.5°F19.7°C 41.0°F5.0°C 38% Calm Calm 2.0 mph3.2 kmh 29.79 in1008.8 mb 0.00 in0.0 mm 0.00 in0.0 mm 0.00 in0.0 mm
08:50 PM 67.3°F19.6°C 40.8°F4.9°C 38% 1.0 mph NNE1.6 kmh NNE 2.0 mph3.2 kmh 29.79 in1008.8 mb 0.00 in0.0 mm 0.00 in0.0 mm 0.00 in0.0 mm
08:55 PM 67.1°F19.5°C 40.6°F4.8°C 38% 1.0 mph N1.6 kmh N 2.0 mph3.2 kmh 29.79 in1008.8 mb 0.00 in0.0 mm 0.00 in0.0 mm 0.00 in0.0 mm
09:00 PM 66.7°F19.3°C 40.3°F4.6°C 38% 1.0 mph N1.6 kmh N 2.0 mph3.2 kmh 29.79 in1008.8 mb 0.00 in0.0 mm 0.00 in0.0 mm 0.00 in0.0 mm
09:05 PM 66.4°F19.1°C 40.7°F4.8°C 39% 1.0 mph N1.6 kmh N 2.0 mph3.2 kmh 29.79 in1008.8 mb 0.00 in0.0 mm 0.00 in0.0 mm 0.00 in0.0 mm
09:10 PM 66.1°F18.9°C 40.4°F4.7°C 39% 1.0 mph N1.6 kmh N 1.0 mph1.6 kmh 29.79 in1008.8 mb 0.00 in0.0 mm 0.00 in0.0 mm 0.00 in0.0 mm
09:15 PM 65.7°F18.7°C 40.7°F4.8°C 40% Calm Calm 1.0 mph1.6 kmh 29.79 in1008.8 mb 0.00 in0.0 mm 0.00 in0.0 mm 0.00 in0.0 mm
09:20 PM 65.5°F18.6°C 40.5°F4.7°C 40% Calm Calm 1.0 mph1.6 kmh 29.79 in1008.8 mb 0.00 in0.0 mm 0.00 in0.0 mm 0.00 in0.0 mm
09:25 PM 65.5°F18.6°C 39.9°F4.4°C 39% Calm Calm 2.0 mph3.2 kmh 29.80 in1009.1 mb 0.00 in0.0 mm 0.00 in0.0 mm 0.00 in0.0 mm
09:30 PM 65.3°F18.5°C 39.7°F4.3°C 39% Calm Calm 2.0 mph3.2 kmh 29.80 in1009.1 mb 0.00 in0.0 mm 0.00 in0.0 mm 0.00 in0.0 mm
09:35 PM 65.5°F18.6°C 39.2°F4.0°C 38% 1.0 mph NNE1.6 kmh NNE 4.0 mph6.4 kmh 29.80 in1009.1 mb 0.00 in0.0 mm 0.00 in0.0 mm 0.00 in0.0 mm
09:40 PM 65.9°F18.8°C 38.9°F3.8°C 37% 1.0 mph NE1.6 kmh NE 4.0 mph6.4 kmh 29.80 in1009.1 mb 0.00 in0.0 mm 0.00 in0.0 mm 0.00 in0.0 mm
09:45 PM 65.6°F18.7°C 39.3°F4.1°C 38% 1.0 mph NE1.6 kmh NE 2.0 mph3.2 kmh 29.80 in1009.1 mb 0.00 in0.0 mm 0.00 in0.0 mm 0.00 in0.0 mm
09:50 PM 65.4°F18.6°C 38.4°F3.6°C 37% 1.0 mph E1.6 kmh E 2.0 mph3.2 kmh 29.80 in1009.1 mb 0.00 in0.0 mm 0.00 in0.0 mm 0.00 in0.0 mm
09:55 PM 65.5°F18.6°C 38.5°F3.6°C 37% Calm Calm 2.0 mph3.2 kmh 29.80 in1009.1 mb 0.00 in0.0 mm 0.00 in0.0 mm 0.00 in0.0 mm
10:00 PM 65.3°F18.5°C 38.3°F3.5°C 37% 1.0 mph E1.6 kmh E 2.0 mph3.2 kmh 29.80 in1009.1 mb 0.00 in0.0 mm 0.00 in0.0 mm 0.00 in0.0 mm
10:05 PM 65.0°F18.3°C 38.1°F3.4°C 37% 1.0 mph ESE1.6 kmh ESE 2.0 mph3.2 kmh 29.80 in1009.1 mb 0.00 in0.0 mm 0.00 in0.0 mm 0.00 in0.0 mm
10:10 PM 64.8°F18.2°C 37.9°F3.3°C 37% 1.0 mph SE1.6 kmh SE 2.0 mph3.2 kmh 29.80 in1009.1 mb 0.00 in0.0 mm 0.00 in0.0 mm 0.00 in0.0 mm
10:15 PM 64.5°F18.1°C 37.6°F3.1°C 37% 1.0 mph NE1.6 kmh NE 2.0 mph3.2 kmh 29.80 in1009.1 mb 0.00 in0.0 mm 0.00 in0.0 mm 0.00 in0.0 mm
10:20 PM 64.3°F17.9°C 37.5°F3.1°C 37% 1.0 mph NE1.6 kmh NE 3.0 mph4.8 kmh 29.80 in1009.1 mb 0.00 in0.0 mm 0.00 in0.0 mm 0.00 in0.0 mm
10:25 PM 64.1°F17.8°C 37.3°F2.9°C 37% 1.0 mph NE1.6 kmh NE 3.0 mph4.8 kmh 29.80 in1009.1 mb 0.00 in0.0 mm 0.00 in0.0 mm 0.00 in0.0 mm
10:30 PM 64.1°F17.8°C 37.3°F2.9°C 37% 2.0 mph NE3.2 kmh NE 4.0 mph6.4 kmh 29.80 in1009.1 mb 0.00 in0.0 mm 0.00 in0.0 mm 0.00 in0.0 mm
10:35 PM 64.0°F17.8°C 37.2°F2.9°C 37% 2.0 mph NE3.2 kmh NE 4.0 mph6.4 kmh 29.80 in1009.1 mb 0.00 in0.0 mm 0.00 in0.0 mm 0.00 in0.0 mm
10:40 PM 63.9°F17.7°C 37.1°F2.8°C 37% 2.0 mph NE3.2 kmh NE 3.0 mph4.8 kmh 29.80 in1009.1 mb 0.00 in0.0 mm 0.00 in0.0 mm 0.00 in0.0 mm
10:45 PM 63.8°F17.7°C 36.3°F2.4°C 36% 2.0 mph NE3.2 kmh NE 4.0 mph6.4 kmh 29.80 in1009.1 mb 0.00 in0.0 mm 0.00 in0.0 mm 0.00 in0.0 mm
10:50 PM 63.7°F17.6°C 36.2°F2.3°C 36% 2.0 mph NE3.2 kmh NE 4.0 mph6.4 kmh 29.80 in1009.1 mb 0.00 in0.0 mm 0.00 in0.0 mm 0.00 in0.0 mm
10:55 PM 63.6°F17.6°C 36.1°F2.3°C 36% 2.0 mph NE3.2 kmh NE 3.0 mph4.8 kmh 29.80 in1009.1 mb 0.00 in0.0 mm 0.00 in0.0 mm 0.00 in0.0 mm
11:00 PM 63.5°F17.5°C 36.0°F2.2°C 36% 1.0 mph ENE1.6 kmh ENE 3.0 mph4.8 kmh 29.80 in1009.1 mb 0.00 in0.0 mm 0.00 in0.0 mm 0.00 in0.0 mm
11:05 PM 63.3°F17.4°C 35.9°F2.2°C 36% 1.0 mph ENE1.6 kmh ENE 3.0 mph4.8 kmh 29.80 in1009.1 mb 0.00 in0.0 mm 0.00 in0.0 mm 0.00 in0.0 mm
11:10 PM 63.2°F17.3°C 35.1°F1.7°C 35% 2.0 mph ENE3.2 kmh ENE 4.0 mph6.4 kmh 29.80 in1009.1 mb 0.00 in0.0 mm 0.00 in0.0 mm 0.00 in0.0 mm
11:15 PM 63.0°F17.2°C 34.9°F1.6°C 35% 2.0 mph ENE3.2 kmh ENE 4.0 mph6.4 kmh 29.80 in1009.1 mb 0.00 in0.0 mm 0.00 in0.0 mm 0.00 in0.0 mm
11:20 PM 62.7°F17.1°C 34.6°F1.4°C 35% 2.0 mph ENE3.2 kmh ENE 4.0 mph6.4 kmh 29.80 in1009.1 mb 0.00 in0.0 mm 0.00 in0.0 mm 0.00 in0.0 mm
11:25 PM 62.5°F16.9°C 34.5°F1.4°C 35% 1.0 mph E1.6 kmh E 4.0 mph6.4 kmh 29.80 in1009.1 mb 0.00 in0.0 mm 0.00 in0.0 mm 0.00 in0.0 mm
11:30 PM 62.2°F16.8°C 34.2°F1.2°C 35% 1.0 mph E1.6 kmh E 4.0 mph6.4 kmh 29.80 in1009.1 mb 0.00 in0.0 mm 0.00 in0.0 mm 0.00 in0.0 mm
11:35 PM 61.9°F16.6°C 33.9°F1.1°C 35% 1.0 mph ENE1.6 kmh ENE 3.0 mph4.8 kmh 29.80 in1009.1 mb 0.00 in0.0 mm 0.00 in0.0 mm 0.00 in0.0 mm
11:40 PM 61.5°F16.4°C 33.6°F0.9°C 35% 1.0 mph NE1.6 kmh NE 3.0 mph4.8 kmh 29.81 in1009.5 mb 0.00 in0.0 mm 0.00 in0.0 mm 0.00 in0.0 mm
11:45 PM 61.3°F16.3°C 32.7°F0.4°C 34% 1.0 mph ENE1.6 kmh ENE 2.0 mph3.2 kmh 29.80 in1009.1 mb 0.00 in0.0 mm 0.00 in0.0 mm 0.00 in0.0 mm
11:50 PM 61.2°F16.2°C 31.8°F-0.1°C 33% 1.0 mph E1.6 kmh E 2.0 mph3.2 kmh 29.81 in1009.5 mb 0.00 in0.0 mm 0.00 in0.0 mm 0.00 in0.0 mm
11:55 PM 61.2°F16.2°C 31.8°F-0.1°C 33% 1.0 mph ENE1.6 kmh ENE 2.0 mph3.2 kmh 29.81 in1009.5 mb 0.00 in0.0 mm 0.00 in0.0 mm 0.00 in0.0 mm